Time;durP1;ratioP1;P1;durP2;ratioP2;P2;SDS_P1;SDS_P2;PMS_P1;PMS_P2;Temp;Humidity;BMP_temperature;BMP_pressure;BME280_temperature;BME280_humidity;BME280_pressure;Samples;Min_cycle;Max_cycle;Signal;HPM_P1;HPM_P2
2022/07/19 00:02:08;;;;;;;;;;;17.90;99.90;;;;;;4986985;28;19932;-86
2022/07/19 00:04:35;;;;;;;;;;;17.90;99.90;;;;;;4990275;28;20996;-85
2022/07/19 00:07:01;;;;;;;;;;;17.90;99.90;;;;;;4991657;28;19929;-85
2022/07/19 00:09:26;;;;;;;;;;;17.80;99.90;;;;;;4987074;28;19980;-85
2022/07/19 00:11:52;;;;;;;;;;;17.80;99.90;;;;;;4983722;28;20241;-85
2022/07/19 00:14:18;;;;;;;;;;;17.90;99.90;;;;;;4982878;28;19954;-85
2022/07/19 00:16:44;;;;;;;;;;;17.80;99.90;;;;;;4998538;28;19964;-85
2022/07/19 00:19:09;;;;;;;;;;;17.70;99.90;;;;;;4993276;28;20363;-85
2022/07/19 00:21:35;;;;;;;;;;;17.70;99.90;;;;;;4990155;28;19933;-85
2022/07/19 00:24:01;;;;;;;;;;;17.60;99.90;;;;;;4995991;28;19936;-85
2022/07/19 00:26:27;;;;;;;;;;;17.70;99.90;;;;;;4972247;28;19999;-85
2022/07/19 00:28:54;;;;;;;;;;;17.60;99.90;;;;;;4995701;28;19925;-85
2022/07/19 00:31:21;;;;;;;;;;;17.60;99.90;;;;;;4990214;28;19972;-84
2022/07/19 00:33:46;;;;;;;;;;;17.40;99.90;;;;;;4984776;28;19974;-84
2022/07/19 00:36:14;;;;;;;;;;;17.40;99.90;;;;;;4977881;28;20300;-84
2022/07/19 00:38:40;;;;;;;;;;;17.50;99.90;;;;;;4988251;28;19940;-84
2022/07/19 00:41:06;;;;;;;;;;;17.60;99.90;;;;;;4988244;28;19933;-85
2022/07/19 00:43:31;;;;;;;;;;;17.40;99.90;;;;;;4991550;28;19975;-84
2022/07/19 00:45:57;;;;;;;;;;;17.50;99.90;;;;;;4990498;28;19967;-85
2022/07/19 00:48:23;;;;;;;;;;;17.40;99.90;;;;;;4986452;28;19935;-85
2022/07/19 00:50:49;;;;;;;;;;;17.30;99.90;;;;;;4985973;28;19982;-85
2022/07/19 00:53:15;;;;;;;;;;;17.30;99.90;;;;;;4963528;28;20011;-84
2022/07/19 00:55:41;;;;;;;;;;;17.30;99.90;;;;;;4992634;28;19994;-85
2022/07/19 00:58:08;;;;;;;;;;;17.30;99.90;;;;;;4990372;28;19980;-85
2022/07/19 01:00:34;;;;;;;;;;;17.30;99.90;;;;;;4989130;28;19929;-85
2022/07/19 01:03:00;;;;;;;;;;;17.30;99.90;;;;;;4988368;28;19971;-85
2022/07/19 01:05:26;;;;;;;;;;;17.40;99.90;;;;;;4995202;28;20298;-84
2022/07/19 01:07:52;;;;;;;;;;;17.40;99.90;;;;;;4995691;28;19929;-85
2022/07/19 01:10:18;;;;;;;;;;;17.20;99.90;;;;;;4990776;28;20007;-86
2022/07/19 01:12:44;;;;;;;;;;;17.30;99.90;;;;;;4993772;28;19925;-85
2022/07/19 01:15:18;;;;;;;;;;;17.40;99.90;;;;;;4989580;28;19933;-85
2022/07/19 01:17:43;;;;;;;;;;;17.50;99.90;;;;;;4996394;28;20070;-85
2022/07/19 01:20:10;;;;;;;;;;;17.30;99.90;;;;;;4993094;28;19996;-84
2022/07/19 01:22:35;;;;;;;;;;;17.30;99.90;;;;;;4987962;28;20020;-85
2022/07/19 01:25:01;;;;;;;;;;;17.30;99.90;;;;;;4991961;28;19984;-85
2022/07/19 01:27:27;;;;;;;;;;;17.40;99.90;;;;;;4993786;28;19936;-84
2022/07/19 01:29:52;;;;;;;;;;;17.30;99.90;;;;;;4990400;28;20023;-84
2022/07/19 01:32:18;;;;;;;;;;;17.40;99.90;;;;;;4975495;28;19995;-84
2022/07/19 01:34:44;;;;;;;;;;;17.30;99.90;;;;;;4994623;28;19983;-84
2022/07/19 01:37:09;;;;;;;;;;;17.40;99.90;;;;;;4994731;28;19935;-84
2022/07/19 01:39:35;;;;;;;;;;;17.50;99.90;;;;;;4994587;28;19929;-84
2022/07/19 01:42:00;;;;;;;;;;;17.40;99.90;;;;;;4997325;28;20092;-84
2022/07/19 01:44:26;;;;;;;;;;;17.40;99.90;;;;;;5001798;28;19929;-84
2022/07/19 01:46:52;;;;;;;;;;;17.30;99.90;;;;;;5002256;28;20708;-84
2022/07/19 01:49:17;;;;;;;;;;;17.50;99.90;;;;;;4999468;28;19940;-84
2022/07/19 01:51:43;;;;;;;;;;;17.60;99.90;;;;;;4998720;28;19933;-84
2022/07/19 01:54:09;;;;;;;;;;;17.80;99.90;;;;;;4996070;28;20023;-84
2022/07/19 01:56:34;;;;;;;;;;;17.80;99.90;;;;;;4979713;28;19935;-84
2022/07/19 01:59:00;;;;;;;;;;;17.60;99.90;;;;;;5009976;28;19956;-84
2022/07/19 02:01:26;;;;;;;;;;;17.30;99.90;;;;;;4974904;28;20669;-85
2022/07/19 02:03:52;;;;;;;;;;;17.20;99.90;;;;;;4990742;28;19963;-84
2022/07/19 02:06:17;;;;;;;;;;;17.20;99.90;;;;;;4997418;28;20349;-84
2022/07/19 02:08:43;;;;;;;;;;;17.10;99.90;;;;;;4990215;28;19933;-84
2022/07/19 02:13:53;;;;;;;;;;;17.00;99.90;;;;;;4994982;28;20366;-84
2022/07/19 02:16:19;;;;;;;;;;;17.00;99.90;;;;;;5008656;28;19940;-83
2022/07/19 02:18:44;;;;;;;;;;;16.80;99.90;;;;;;4975812;28;19933;-84
2022/07/19 02:21:10;;;;;;;;;;;16.60;99.90;;;;;;4992815;28;19933;-84
2022/07/19 02:23:36;;;;;;;;;;;16.80;99.90;;;;;;4994142;28;19940;-84
2022/07/19 02:26:02;;;;;;;;;;;16.80;99.90;;;;;;4997393;28;20029;-85
2022/07/19 02:28:28;;;;;;;;;;;16.70;99.90;;;;;;4996195;28;19951;-84
2022/07/19 02:30:53;;;;;;;;;;;17.00;99.90;;;;;;4996110;28;19986;-84
2022/07/19 02:33:19;;;;;;;;;;;17.20;99.90;;;;;;4998535;28;20468;-84
2022/07/19 02:35:45;;;;;;;;;;;17.10;99.90;;;;;;4997203;28;19940;-84
2022/07/19 02:38:11;;;;;;;;;;;17.30;99.90;;;;;;4995083;28;19937;-85
2022/07/19 02:40:36;;;;;;;;;;;17.30;99.90;;;;;;4994922;28;19929;-84
2022/07/19 02:43:02;;;;;;;;;;;17.40;99.90;;;;;;4983333;28;20412;-84
2022/07/19 02:45:28;;;;;;;;;;;17.40;99.90;;;;;;4994934;28;20739;-84
2022/07/19 02:47:53;;;;;;;;;;;17.40;99.90;;;;;;4992475;28;20638;-84
2022/07/19 02:50:19;;;;;;;;;;;17.20;99.90;;;;;;4996918;28;19929;-84
2022/07/19 02:52:45;;;;;;;;;;;17.20;99.90;;;;;;4998408;28;20447;-85
2022/07/19 02:55:10;;;;;;;;;;;17.20;99.90;;;;;;4995666;28;20019;-84
2022/07/19 02:57:36;;;;;;;;;;;17.10;99.90;;;;;;4996698;28;20338;-85
2022/07/19 03:00:08;;;;;;;;;;;17.00;99.90;;;;;;4998488;28;19929;-85
2022/07/19 03:02:34;;;;;;;;;;;16.90;99.90;;;;;;4994377;28;20642;-85
2022/07/19 03:04:59;;;;;;;;;;;16.70;99.90;;;;;;4986349;28;19929;-85
2022/07/19 03:07:25;;;;;;;;;;;16.60;99.90;;;;;;5011518;28;20019;-85
2022/07/19 03:09:51;;;;;;;;;;;16.50;99.90;;;;;;5013307;28;19936;-85
2022/07/19 03:12:16;;;;;;;;;;;16.40;99.90;;;;;;5009159;28;19925;-85
2022/07/19 03:14:42;;;;;;;;;;;16.40;99.90;;;;;;4998754;28;19929;-85
2022/07/19 03:17:07;;;;;;;;;;;16.30;99.90;;;;;;5009597;28;20418;-84
2022/07/19 03:19:33;;;;;;;;;;;16.30;99.90;;;;;;5012405;28;19935;-85
2022/07/19 03:21:59;;;;;;;;;;;16.30;99.90;;;;;;5011710;28;20440;-84
2022/07/19 03:24:24;;;;;;;;;;;16.20;99.90;;;;;;5010531;28;19929;-85
2022/07/19 03:26:50;;;;;;;;;;;16.10;99.90;;;;;;4989848;28;19984;-85
2022/07/19 03:29:16;;;;;;;;;;;16.00;99.90;;;;;;5003707;28;20007;-85
2022/07/19 03:31:41;;;;;;;;;;;16.00;99.90;;;;;;5009840;28;19928;-85
2022/07/19 03:34:07;;;;;;;;;;;16.00;99.90;;;;;;5010606;28;19940;-84
2022/07/19 03:36:33;;;;;;;;;;;16.00;99.90;;;;;;4988687;28;20442;-86
2022/07/19 03:38:58;;;;;;;;;;;16.10;99.90;;;;;;5010259;28;20047;-85
2022/07/19 03:41:24;;;;;;;;;;;16.10;99.90;;;;;;5007748;28;20039;-85
2022/07/19 03:43:50;;;;;;;;;;;16.10;99.90;;;;;;5008583;28;20744;-85
2022/07/19 03:46:15;;;;;;;;;;;16.10;99.90;;;;;;5007974;28;20560;-84
2022/07/19 03:48:41;;;;;;;;;;;16.20;99.90;;;;;;4995878;28;20369;-85
2022/07/19 03:51:06;;;;;;;;;;;16.20;99.90;;;;;;5014355;28;19929;-85
2022/07/19 03:53:34;;;;;;;;;;;16.20;99.90;;;;;;4992185;28;19943;-85
2022/07/19 03:56:00;;;;;;;;;;;16.20;99.90;;;;;;5010985;28;20024;-84
2022/07/19 03:58:26;;;;;;;;;;;16.20;99.90;;;;;;5012320;28;19991;-83
2022/07/19 04:00:51;;;;;;;;;;;16.30;99.90;;;;;;5005997;28;19932;-84
2022/07/19 04:03:17;;;;;;;;;;;16.20;99.90;;;;;;4996707;28;19928;-84
2022/07/19 04:05:43;;;;;;;;;;;16.20;99.90;;;;;;5012441;28;19964;-83
2022/07/19 04:08:09;;;;;;;;;;;16.10;99.90;;;;;;5006983;28;19933;-84
2022/07/19 04:10:34;;;;;;;;;;;16.20;99.90;;;;;;5011330;28;19924;-82
2022/07/19 04:13:00;;;;;;;;;;;16.10;99.90;;;;;;5008874;28;19995;-83
2022/07/19 04:15:26;;;;;;;;;;;16.20;99.90;;;;;;4991515;28;19941;-83
2022/07/19 04:17:51;;;;;;;;;;;16.20;99.90;;;;;;5004212;28;20341;-83
2022/07/19 04:20:17;;;;;;;;;;;16.20;99.90;;;;;;5009724;28;19928;-83
2022/07/19 04:22:42;;;;;;;;;;;16.20;99.90;;;;;;5012466;28;20674;-83
2022/07/19 04:25:08;;;;;;;;;;;16.20;99.90;;;;;;5013023;28;19940;-83
2022/07/19 04:27:34;;;;;;;;;;;16.20;99.90;;;;;;4995642;28;20373;-83
2022/07/19 04:30:00;;;;;;;;;;;16.20;99.90;;;;;;5014924;28;19963;-83
2022/07/19 04:32:25;;;;;;;;;;;16.20;99.90;;;;;;5013965;28;19929;-83
2022/07/19 04:34:51;;;;;;;;;;;16.20;99.90;;;;;;5012887;28;20346;-83
2022/07/19 04:37:17;;;;;;;;;;;16.30;99.90;;;;;;5010376;28;20036;-83
2022/07/19 04:39:42;;;;;;;;;;;16.40;99.90;;;;;;5011615;28;19928;-83
2022/07/19 04:42:08;;;;;;;;;;;16.50;99.90;;;;;;5012931;28;19974;-83
2022/07/19 04:44:34;;;;;;;;;;;16.60;99.90;;;;;;5011295;28;19968;-83
2022/07/19 04:46:59;;;;;;;;;;;16.70;99.90;;;;;;4990383;28;20020;-83
2022/07/19 04:49:25;;;;;;;;;;;17.00;99.90;;;;;;5012786;28;19935;-83
2022/07/19 04:51:51;;;;;;;;;;;17.40;99.90;;;;;;5026956;28;19972;-83
2022/07/19 04:54:17;;;;;;;;;;;17.50;99.90;;;;;;5027420;28;19928;-83
2022/07/19 04:56:42;;;;;;;;;;;18.60;99.90;;;;;;4990245;28;19929;-83
2022/07/19 04:59:08;;;;;;;;;;;19.60;99.90;;;;;;5010858;28;20415;-84
2022/07/19 05:01:34;;;;;;;;;;;20.50;99.90;;;;;;5008073;28;19937;-84
2022/07/19 05:04:00;;;;;;;;;;;20.80;99.90;;;;;;5016782;28;19972;-84
2022/07/19 05:06:25;;;;;;;;;;;21.10;99.90;;;;;;5014141;28;19929;-83
2022/07/19 05:08:52;;;;;;;;;;;21.50;99.90;;;;;;4978657;28;19983;-83
2022/07/19 05:11:18;;;;;;;;;;;21.60;99.90;;;;;;5011975;28;20299;-83
2022/07/19 05:13:44;;;;;;;;;;;21.70;99.90;;;;;;5014851;28;20349;-84
2022/07/19 05:16:09;;;;;;;;;;;21.90;99.90;;;;;;5011914;28;19936;-84
2022/07/19 05:18:35;;;;;;;;;;;22.00;99.90;;;;;;5011140;28;20500;-84
2022/07/19 05:21:01;;;;;;;;;;;22.60;99.90;;;;;;5011653;28;19934;-83
2022/07/19 05:23:27;;;;;;;;;;;22.80;99.90;;;;;;5012971;28;19974;-83
2022/07/19 05:25:52;;;;;;;;;;;23.10;99.90;;;;;;5015199;28;19998;-83
2022/07/19 05:28:18;;;;;;;;;;;23.30;99.90;;;;;;5011037;28;19929;-84
2022/07/19 05:30:44;;;;;;;;;;;23.80;99.90;;;;;;4990656;28;19969;-84
2022/07/19 05:33:09;;;;;;;;;;;23.70;99.90;;;;;;5012022;28;19945;-84
2022/07/19 05:35:35;;;;;;;;;;;24.10;99.90;;;;;;5012521;28;19959;-84
2022/07/19 05:38:01;;;;;;;;;;;24.40;99.90;;;;;;5016139;28;19983;-84
2022/07/19 05:40:26;;;;;;;;;;;24.40;99.90;;;;;;5019045;28;20761;-84
2022/07/19 05:42:52;;;;;;;;;;;24.80;99.90;;;;;;5014318;28;20152;-84
2022/07/19 05:45:17;;;;;;;;;;;24.90;99.90;;;;;;4997154;28;20135;-83
2022/07/19 05:47:43;;;;;;;;;;;25.00;99.90;;;;;;5016191;28;19928;-85
2022/07/19 05:50:09;;;;;;;;;;;25.20;99.90;;;;;;5012573;28;19929;-85
2022/07/19 05:52:34;;;;;;;;;;;24.90;99.90;;;;;;5010183;28;20336;-85
2022/07/19 05:55:00;;;;;;;;;;;24.00;99.90;;;;;;4998760;28;19926;-83
2022/07/19 05:57:26;;;;;;;;;;;23.50;99.90;;;;;;5015670;28;19929;-82
2022/07/19 05:59:53;;;;;;;;;;;23.40;99.90;;;;;;5017389;28;19929;-84
2022/07/19 06:02:19;;;;;;;;;;;23.40;99.90;;;;;;4991133;28;19937;-83
2022/07/19 06:04:45;;;;;;;;;;;23.20;99.90;;;;;;5003258;28;20484;-84
2022/07/19 06:07:10;;;;;;;;;;;23.50;99.90;;;;;;5003078;28;19991;-83
2022/07/19 06:09:36;;;;;;;;;;;23.70;99.90;;;;;;5012095;28;19936;-84
2022/07/19 06:12:02;;;;;;;;;;;24.00;99.90;;;;;;5019789;28;20113;-84
2022/07/19 06:14:27;;;;;;;;;;;23.00;99.90;;;;;;5009556;28;20410;-83
2022/07/19 06:16:53;;;;;;;;;;;23.50;99.90;;;;;;5012487;28;19928;-82
2022/07/19 06:19:19;;;;;;;;;;;23.00;99.90;;;;;;5009211;28;19929;-85
2022/07/19 06:21:45;;;;;;;;;;;23.50;99.90;;;;;;4999170;28;19929;-85
2022/07/19 06:24:11;;;;;;;;;;;24.10;99.90;;;;;;4992280;28;20474;-85
2022/07/19 06:26:37;;;;;;;;;;;24.80;99.90;;;;;;5031514;28;19929;-84
2022/07/19 06:29:02;;;;;;;;;;;24.90;99.90;;;;;;5015641;28;19968;-84
2022/07/19 06:31:28;;;;;;;;;;;24.30;99.90;;;;;;5012613;28;20051;-84
2022/07/19 06:33:57;;;;;;;;;;;24.60;99.90;;;;;;5011769;28;19928;-84
2022/07/19 06:36:22;;;;;;;;;;;25.20;99.90;;;;;;5014514;28;20412;-80
2022/07/19 06:38:49;;;;;;;;;;;25.20;99.90;;;;;;5014188;28;20630;-84
2022/07/19 06:41:16;;;;;;;;;;;25.60;99.90;;;;;;5017780;28;19928;-85
2022/07/19 06:43:42;;;;;;;;;;;24.70;99.90;;;;;;5009341;28;19979;-84
2022/07/19 06:46:08;;;;;;;;;;;24.50;99.90;;;;;;5002900;28;20048;-85
2022/07/19 06:48:34;;;;;;;;;;;25.10;99.90;;;;;;5010631;28;20374;-84
2022/07/19 06:50:59;;;;;;;;;;;25.50;99.90;;;;;;5015686;28;19936;-84
2022/07/19 06:53:25;;;;;;;;;;;25.70;99.90;;;;;;4995350;28;19928;-84
2022/07/19 06:55:51;;;;;;;;;;;25.90;99.90;;;;;;5015920;28;19940;-86
2022/07/19 06:58:17;;;;;;;;;;;26.30;99.90;;;;;;5016589;28;19939;-85
2022/07/19 07:00:42;;;;;;;;;;;26.70;99.90;;;;;;5011524;28;19929;-84
2022/07/19 07:03:08;;;;;;;;;;;26.90;99.90;;;;;;5016015;28;20083;-84
2022/07/19 07:05:34;;;;;;;;;;;26.80;99.90;;;;;;5014341;28;19940;-86
2022/07/19 07:08:00;;;;;;;;;;;26.80;99.90;;;;;;5016388;28;20516;-86
2022/07/19 07:10:26;;;;;;;;;;;26.80;99.90;;;;;;5020198;28;19929;-87
2022/07/19 07:12:51;;;;;;;;;;;27.90;99.90;;;;;;4983249;28;19968;-86
2022/07/19 07:15:17;;;;;;;;;;;28.20;99.90;;;;;;5014705;28;20429;-86
2022/07/19 07:17:43;;;;;;;;;;;28.10;99.90;;;;;;5011476;28;19937;-85
2022/07/19 07:20:09;;;;;;;;;;;27.10;99.90;;;;;;5018466;28;19932;-85
2022/07/19 07:22:35;;;;;;;;;;;27.30;99.90;;;;;;5016605;28;19964;-85
2022/07/19 07:25:01;;;;;;;;;;;27.70;99.90;;;;;;5019481;28;20019;-82
2022/07/19 07:27:26;;;;;;;;;;;27.70;99.90;;;;;;5016247;28;20766;-83
2022/07/19 07:29:52;;;;;;;;;;;28.00;99.90;;;;;;5036362;28;20419;-84
2022/07/19 07:32:18;;;;;;;;;;;27.90;99.90;;;;;;4997097;28;20008;-83
2022/07/19 07:34:44;;;;;;;;;;;28.20;99.90;;;;;;5014987;28;20027;-85
2022/07/19 07:37:10;;;;;;;;;;;27.80;99.90;;;;;;5015416;28;19928;-82
2022/07/19 07:39:36;;;;;;;;;;;27.60;99.90;;;;;;5014119;28;19940;-85
2022/07/19 07:42:03;;;;;;;;;;;27.90;99.90;;;;;;4999301;28;19929;-83
2022/07/19 07:44:29;;;;;;;;;;;28.00;99.90;;;;;;5009041;28;19940;-83
2022/07/19 07:46:54;;;;;;;;;;;27.90;99.90;;;;;;5013004;28;19928;-87
2022/07/19 07:49:20;;;;;;;;;;;28.40;99.90;;;;;;5014385;28;19929;-84
2022/07/19 07:51:46;;;;;;;;;;;28.70;99.90;;;;;;5009200;28;20382;-85
2022/07/19 07:54:12;;;;;;;;;;;28.60;99.90;;;;;;5013324;28;19936;-84
2022/07/19 07:56:37;;;;;;;;;;;28.60;99.90;;;;;;5009666;28;19936;-83
2022/07/19 07:59:03;;;;;;;;;;;28.60;99.90;;;;;;5013553;28;20052;-83
2022/07/19 08:01:30;;;;;;;;;;;28.80;99.70;;;;;;5013246;28;20059;-83
2022/07/19 08:03:56;;;;;;;;;;;29.00;99.90;;;;;;5011522;28;20383;-84
2022/07/19 08:06:22;;;;;;;;;;;29.30;99.80;;;;;;5005599;28;19935;-85
2022/07/19 08:08:47;;;;;;;;;;;29.40;99.90;;;;;;5002755;28;20646;-85
2022/07/19 08:11:13;;;;;;;;;;;29.30;99.90;;;;;;5002112;28;19929;-85
2022/07/19 08:13:39;;;;;;;;;;;29.70;99.70;;;;;;5033032;28;19932;-86
2022/07/19 08:16:04;;;;;;;;;;;29.60;99.90;;;;;;5013944;28;19933;-83
2022/07/19 08:18:30;;;;;;;;;;;29.40;99.40;;;;;;5015486;28;19967;-83
2022/07/19 08:20:55;;;;;;;;;;;29.30;99.40;;;;;;5011379;28;19980;-84
2022/07/19 08:23:21;;;;;;;;;;;29.70;99.80;;;;;;5007918;28;19929;-84
2022/07/19 08:25:47;;;;;;;;;;;29.30;99.70;;;;;;5012313;28;19929;-86
2022/07/19 08:28:12;;;;;;;;;;;29.70;99.90;;;;;;5013075;28;20393;-85
2022/07/19 08:30:38;;;;;;;;;;;30.50;99.80;;;;;;4994087;28;19933;-82
2022/07/19 08:33:08;;;;;;;;;;;30.70;99.00;;;;;;5009844;28;19940;-86
2022/07/19 08:35:34;;;;;;;;;;;30.30;98.70;;;;;;5006581;28;19982;-86
2022/07/19 08:37:59;;;;;;;;;;;30.80;97.70;;;;;;4981334;28;19929;-85
2022/07/19 08:40:25;;;;;;;;;;;30.90;97.10;;;;;;5026530;28;19971;-84
2022/07/19 08:42:51;;;;;;;;;;;30.90;96.50;;;;;;5014486;28;19967;-83
2022/07/19 08:45:17;;;;;;;;;;;31.00;95.90;;;;;;5016847;28;19929;-85
2022/07/19 08:47:43;;;;;;;;;;;31.10;95.00;;;;;;5011746;28;20103;-87
2022/07/19 08:50:11;;;;;;;;;;;31.10;93.90;;;;;;5008164;28;20035;-85
2022/07/19 08:52:37;;;;;;;;;;;31.40;95.00;;;;;;5006018;28;19929;-86
2022/07/19 08:55:03;;;;;;;;;;;31.00;94.90;;;;;;5011105;28;20034;-85
2022/07/19 09:00:13;;;;;;;;;;;31.20;93.40;;;;;;5007738;28;19986;-84
2022/07/19 09:02:39;;;;;;;;;;;31.10;93.00;;;;;;5010738;28;19937;-85
2022/07/19 09:05:07;;;;;;;;;;;31.10;92.00;;;;;;5021550;28;19935;-87
2022/07/19 09:07:37;;;;;;;;;;;31.50;94.50;;;;;;5006659;28;20558;-86
2022/07/19 09:10:16;;;;;;;;;;;32.10;94.30;;;;;;5009665;28;19982;-84
2022/07/19 09:13:01;;;;;;;;;;;31.60;90.40;;;;;;5009256;28;19982;-84
2022/07/19 09:15:37;;;;;;;;;;;31.80;93.40;;;;;;5010658;28;19936;-85
2022/07/19 09:18:22;;;;;;;;;;;31.70;92.20;;;;;;5014856;28;20466;-84
2022/07/19 09:20:49;;;;;;;;;;;31.70;91.60;;;;;;5012223;28;19972;-85
2022/07/19 09:23:15;;;;;;;;;;;32.20;92.40;;;;;;5011134;28;20324;-85
2022/07/19 09:25:43;;;;;;;;;;;32.20;91.50;;;;;;4992809;28;19972;-85
2022/07/19 09:28:09;;;;;;;;;;;32.10;89.30;;;;;;4983287;28;22527;-85
2022/07/19 09:30:40;;;;;;;;;;;32.40;89.70;;;;;;4980142;28;19979;-84
2022/07/19 09:33:14;;;;;;;;;;;31.90;90.00;;;;;;5010793;28;19932;-84
2022/07/19 09:35:41;;;;;;;;;;;32.40;89.50;;;;;;5005637;28;19929;-85
2022/07/19 09:38:13;;;;;;;;;;;32.40;90.90;;;;;;4996155;28;19975;-86
2022/07/19 09:40:39;;;;;;;;;;;33.00;90.70;;;;;;4991238;28;19939;-88
2022/07/19 09:43:05;;;;;;;;;;;33.50;90.10;;;;;;5011691;28;19929;-85
2022/07/19 09:45:32;;;;;;;;;;;33.50;87.00;;;;;;4996442;28;19935;-84
2022/07/19 09:48:00;;;;;;;;;;;33.00;82.20;;;;;;4999807;28;19931;-86
2022/07/19 09:50:28;;;;;;;;;;;33.00;83.10;;;;;;4999234;28;20313;-86
2022/07/19 09:52:56;;;;;;;;;;;33.50;85.90;;;;;;4989415;28;20407;-85
2022/07/19 09:55:22;;;;;;;;;;;33.40;85.80;;;;;;5002003;28;20487;-86
2022/07/19 09:57:49;;;;;;;;;;;33.50;84.20;;;;;;4984893;28;19929;-85
2022/07/19 10:00:15;;;;;;;;;;;33.80;88.20;;;;;;4995113;28;20806;-85
2022/07/19 10:02:42;;;;;;;;;;;33.80;78.90;;;;;;4997658;28;20932;-85
2022/07/19 10:05:09;;;;;;;;;;;34.00;81.50;;;;;;5003637;28;19929;-84
2022/07/19 10:07:35;;;;;;;;;;;33.90;79.40;;;;;;5008553;28;19929;-83
2022/07/19 10:10:10;;;;;;;;;;;33.90;79.90;;;;;;5009477;28;19928;-85
2022/07/19 10:12:37;;;;;;;;;;;33.80;77.50;;;;;;5008952;28;19928;-86
2022/07/19 10:15:03;;;;;;;;;;;33.30;76.00;;;;;;5004788;28;19929;-87
2022/07/19 10:17:28;;;;;;;;;;;33.90;80.30;;;;;;5005190;28;19933;-84
2022/07/19 10:19:54;;;;;;;;;;;34.40;76.20;;;;;;4993290;28;20220;-85
2022/07/19 10:22:25;;;;;;;;;;;35.00;77.40;;;;;;5006540;28;19967;-86
2022/07/19 10:24:53;;;;;;;;;;;34.70;74.50;;;;;;5007668;28;20738;-85
2022/07/19 10:27:25;;;;;;;;;;;35.20;73.00;;;;;;5008972;28;19929;-84
2022/07/19 10:29:51;;;;;;;;;;;35.10;70.20;;;;;;4999826;28;21004;-86
2022/07/19 10:32:17;;;;;;;;;;;35.30;70.50;;;;;;4984516;28;19951;-83
2022/07/19 10:34:46;;;;;;;;;;;34.40;66.50;;;;;;4996867;28;19936;-84
2022/07/19 10:37:12;;;;;;;;;;;34.80;68.40;;;;;;4983983;28;19929;-84
2022/07/19 10:39:38;;;;;;;;;;;35.10;69.10;;;;;;4985046;28;19937;-84
2022/07/19 10:42:19;;;;;;;;;;;35.40;67.60;;;;;;4990219;28;19943;-85
2022/07/19 10:44:57;;;;;;;;;;;35.10;68.80;;;;;;4996678;28;21447;-85
2022/07/19 10:47:32;;;;;;;;;;;34.70;66.20;;;;;;4987796;28;20454;-85
2022/07/19 10:50:02;;;;;;;;;;;35.10;66.70;;;;;;4993608;28;20015;-86
2022/07/19 10:52:28;;;;;;;;;;;35.70;66.10;;;;;;4992784;28;20614;-86
2022/07/19 10:55:12;;;;;;;;;;;36.10;68.30;;;;;;4991942;28;19929;-87
2022/07/19 10:57:38;;;;;;;;;;;36.20;68.30;;;;;;4989420;28;20003;-84
2022/07/19 11:00:23;;;;;;;;;;;36.20;65.10;;;;;;4998495;28;19971;-88
2022/07/19 11:02:49;;;;;;;;;;;36.40;66.20;;;;;;4996384;28;19933;-86
2022/07/19 11:05:26;;;;;;;;;;;36.70;66.40;;;;;;4998464;28;20614;-88
2022/07/19 11:07:53;;;;;;;;;;;37.00;67.00;;;;;;4995368;28;19929;-86
2022/07/19 11:10:26;;;;;;;;;;;37.00;63.60;;;;;;4995439;28;19929;-86
2022/07/19 11:12:52;;;;;;;;;;;37.10;62.10;;;;;;4999143;28;19929;-85
2022/07/19 11:15:18;;;;;;;;;;;36.90;61.90;;;;;;4998992;28;20356;-84
2022/07/19 11:17:51;;;;;;;;;;;36.60;61.50;;;;;;5009996;28;19983;-85
2022/07/19 11:20:19;;;;;;;;;;;36.40;60.70;;;;;;5013460;28;19928;-85
2022/07/19 11:22:46;;;;;;;;;;;36.50;59.70;;;;;;5012098;28;20516;-85
2022/07/19 11:25:12;;;;;;;;;;;36.70;59.80;;;;;;5011375;28;19929;-89
2022/07/19 11:27:45;;;;;;;;;;;37.00;62.00;;;;;;4993688;28;20432;-85
2022/07/19 11:30:12;;;;;;;;;;;37.20;61.30;;;;;;5011108;28;19978;-86
2022/07/19 11:32:38;;;;;;;;;;;37.00;62.30;;;;;;5013892;28;19971;-85
2022/07/19 11:35:05;;;;;;;;;;;37.20;59.90;;;;;;5013476;28;20015;-89
2022/07/19 11:37:32;;;;;;;;;;;37.20;63.00;;;;;;5013263;28;19936;-86
2022/07/19 11:39:58;;;;;;;;;;;37.40;61.20;;;;;;5011852;28;19936;-86
2022/07/19 11:42:28;;;;;;;;;;;37.20;59.20;;;;;;5003819;28;20729;-87
2022/07/19 11:44:54;;;;;;;;;;;37.40;60.00;;;;;;5010762;28;19929;-85
2022/07/19 11:47:20;;;;;;;;;;;37.40;60.50;;;;;;5014298;28;20374;-86
2022/07/19 11:49:46;;;;;;;;;;;37.60;59.90;;;;;;5014225;28;19944;-86
2022/07/19 11:52:12;;;;;;;;;;;37.30;58.10;;;;;;5014310;28;19928;-85
2022/07/19 11:54:40;;;;;;;;;;;37.40;57.20;;;;;;5014894;28;19980;-85
2022/07/19 11:57:22;;;;;;;;;;;36.50;55.50;;;;;;5012161;28;20129;-85
2022/07/19 11:59:48;;;;;;;;;;;36.40;57.30;;;;;;5007197;28;19941;-82
2022/07/19 12:02:14;;;;;;;;;;;36.50;56.00;;;;;;5008139;28;20365;-86
2022/07/19 12:04:39;;;;;;;;;;;36.00;54.00;;;;;;4991775;28;19929;-86
2022/07/19 12:07:06;;;;;;;;;;;36.40;56.80;;;;;;4991960;28;19935;-84
2022/07/19 12:09:33;;;;;;;;;;;36.40;58.00;;;;;;5011442;28;19929;-84
2022/07/19 12:11:59;;;;;;;;;;;36.50;57.20;;;;;;5009951;28;20674;-86
2022/07/19 12:14:29;;;;;;;;;;;36.30;55.60;;;;;;5023504;28;20020;-85
2022/07/19 12:17:14;;;;;;;;;;;36.50;55.60;;;;;;5012457;28;19929;-86
2022/07/19 12:19:40;;;;;;;;;;;36.60;56.20;;;;;;5009998;28;19929;-87
2022/07/19 12:22:24;;;;;;;;;;;37.00;58.90;;;;;;5006258;28;19929;-89
2022/07/19 12:24:50;;;;;;;;;;;37.00;57.00;;;;;;5007993;28;19929;-85
2022/07/19 12:27:16;;;;;;;;;;;37.20;54.40;;;;;;5009286;28;19974;-85
2022/07/19 12:29:46;;;;;;;;;;;37.20;57.30;;;;;;5008687;28;20036;-86
2022/07/19 12:32:14;;;;;;;;;;;37.70;53.30;;;;;;5015104;28;19940;-88
2022/07/19 12:34:42;;;;;;;;;;;37.90;52.10;;;;;;5009351;28;20413;-84
2022/07/19 12:37:25;;;;;;;;;;;37.70;53.20;;;;;;5010556;28;20350;-84
2022/07/19 12:40:03;;;;;;;;;;;37.90;55.80;;;;;;5008049;28;19936;-86
2022/07/19 12:42:36;;;;;;;;;;;37.70;53.30;;;;;;5013961;28;19933;-86
2022/07/19 12:45:18;;;;;;;;;;;37.80;55.30;;;;;;5018826;28;20702;-85
2022/07/19 12:47:45;;;;;;;;;;;38.10;56.20;;;;;;5011372;28;20668;-89
2022/07/19 12:50:20;;;;;;;;;;;38.30;56.90;;;;;;5016613;28;19933;-87
2022/07/19 12:52:45;;;;;;;;;;;38.00;52.40;;;;;;5019248;28;19928;-86
2022/07/19 12:55:11;;;;;;;;;;;38.10;53.80;;;;;;5012451;28;19928;-84
2022/07/19 12:57:37;;;;;;;;;;;37.90;51.30;;;;;;5012865;28;19929;-85
2022/07/19 13:00:03;;;;;;;;;;;37.90;51.50;;;;;;5012334;28;19997;-84
2022/07/19 13:02:29;;;;;;;;;;;38.30;53.70;;;;;;5008726;28;19990;-85
2022/07/19 13:04:55;;;;;;;;;;;38.10;51.60;;;;;;5010852;28;19979;-84
2022/07/19 13:07:20;;;;;;;;;;;37.80;51.40;;;;;;5012340;28;20383;-83
2022/07/19 13:09:46;;;;;;;;;;;37.50;52.10;;;;;;5011868;28;20640;-85
2022/07/19 13:12:12;;;;;;;;;;;38.20;55.00;;;;;;5016990;28;19935;-82
2022/07/19 13:14:38;;;;;;;;;;;38.10;53.10;;;;;;5016835;28;19932;-83
2022/07/19 13:17:04;;;;;;;;;;;38.00;50.30;;;;;;5016212;28;20047;-84
2022/07/19 13:19:30;;;;;;;;;;;38.20;51.60;;;;;;5011665;28;19983;-86
2022/07/19 13:21:55;;;;;;;;;;;38.20;54.80;;;;;;4996177;28;20019;-83
2022/07/19 13:24:21;;;;;;;;;;;38.20;51.90;;;;;;5014261;28;19929;-86
2022/07/19 13:26:47;;;;;;;;;;;38.00;52.10;;;;;;5014393;28;19929;-83
2022/07/19 13:29:13;;;;;;;;;;;37.80;50.70;;;;;;5014173;28;19928;-84
2022/07/19 13:31:39;;;;;;;;;;;37.70;51.00;;;;;;4997980;28;19935;-84
2022/07/19 13:34:04;;;;;;;;;;;38.00;48.60;;;;;;5016399;28;19933;-82
2022/07/19 13:36:30;;;;;;;;;;;37.30;50.10;;;;;;5015909;28;19936;-84
2022/07/19 13:38:56;;;;;;;;;;;37.80;52.10;;;;;;5015756;28;20684;-88
2022/07/19 13:41:22;;;;;;;;;;;37.80;49.70;;;;;;5000612;28;19968;-84
2022/07/19 13:43:47;;;;;;;;;;;38.00;49.90;;;;;;5022468;28;20355;-83
2022/07/19 13:46:13;;;;;;;;;;;38.00;50.30;;;;;;5020215;28;19929;-83
2022/07/19 13:48:39;;;;;;;;;;;37.90;48.10;;;;;;5019484;28;19954;-83
2022/07/19 13:51:06;;;;;;;;;;;37.70;48.80;;;;;;5019554;28;19928;-82
2022/07/19 13:53:31;;;;;;;;;;;37.70;49.00;;;;;;5021716;28;20298;-85
2022/07/19 13:55:57;;;;;;;;;;;38.10;51.00;;;;;;5023289;28;19928;-86
2022/07/19 13:58:23;;;;;;;;;;;38.10;47.30;;;;;;5014422;28;19929;-83
2022/07/19 14:00:49;;;;;;;;;;;37.70;48.10;;;;;;5016211;28;20001;-85
2022/07/19 14:03:17;;;;;;;;;;;37.80;49.50;;;;;;5016113;28;19929;-83
2022/07/19 14:05:46;;;;;;;;;;;37.70;49.40;;;;;;5020968;28;19929;-84
2022/07/19 14:08:13;;;;;;;;;;;37.70;47.20;;;;;;5000603;28;19976;-87
2022/07/19 14:10:38;;;;;;;;;;;37.80;50.20;;;;;;5019909;28;19929;-83
2022/07/19 14:13:04;;;;;;;;;;;37.70;48.60;;;;;;5015752;28;20573;-84
2022/07/19 14:15:30;;;;;;;;;;;37.50;49.00;;;;;;5014889;28;20746;-83
2022/07/19 14:17:56;;;;;;;;;;;37.90;51.10;;;;;;5021424;28;19928;-83
2022/07/19 14:20:22;;;;;;;;;;;37.50;49.90;;;;;;5018968;28;19928;-83